createdAt,value
2018-01-27T00:01:20.129Z,65.41
2018-01-27T00:03:48.546Z,65.25
2018-01-27T00:06:17.146Z,66.07
2018-01-27T00:08:45.574Z,66.15
2018-01-27T00:11:13.984Z,66.25
2018-01-27T00:13:51.228Z,65.12
2018-01-27T00:16:19.636Z,63.25
2018-01-27T00:18:48.141Z,63.34
2018-01-27T00:21:16.641Z,62.72
2018-01-27T00:23:45.050Z,62.99
2018-01-27T00:26:13.553Z,64.12
2018-01-27T00:28:42.026Z,62.32
2018-01-27T00:31:10.484Z,62.38
2018-01-27T00:33:38.950Z,62.67
2018-01-27T00:36:07.380Z,63.47
2018-01-27T00:38:35.894Z,61.67
2018-01-27T00:41:04.323Z,62.62
2018-01-27T00:43:32.776Z,62.49
2018-01-27T00:46:01.277Z,62.59
2018-01-27T00:48:29.689Z,62.58
2018-01-27T00:50:58.129Z,63.16
2018-01-27T00:53:26.585Z,62.65
2018-01-27T00:55:55.101Z,64.29
2018-01-27T00:58:23.530Z,63.72
2018-01-27T01:00:52.038Z,63.08
2018-01-27T01:03:20.541Z,62.46
2018-01-27T01:05:48.957Z,62.68
2018-01-27T01:08:17.417Z,62.44
2018-01-27T01:10:45.920Z,61.68
2018-01-27T01:13:14.422Z,61.77
2018-01-27T01:15:42.935Z,61.52
2018-01-27T01:18:11.384Z,61.06
2018-01-27T01:20:39.889Z,63.57
2018-01-27T01:23:08.304Z,64.04
2018-01-27T01:25:36.775Z,63.01
2018-01-27T01:28:05.253Z,66.03
2018-01-27T01:30:33.699Z,65.43
2018-01-27T01:33:02.143Z,64.04
2018-01-27T01:35:30.598Z,65.24
2018-01-27T01:37:59.086Z,63.21
2018-01-27T01:40:27.528Z,62.75
2018-01-27T01:43:01.406Z,62.51
2018-01-27T01:48:11.049Z,61.67
2018-01-27T01:50:39.470Z,61.83
2018-01-27T01:53:07.880Z,61.78
2018-01-27T01:55:36.401Z,61.77
2018-01-27T01:58:04.834Z,61.73
2018-01-27T02:00:33.298Z,62.12
2018-01-27T02:03:01.752Z,63.32
2018-01-27T02:05:30.242Z,64.75
2018-01-27T02:07:58.705Z,65.21
2018-01-27T02:10:27.243Z,67.17
2018-01-27T02:12:55.845Z,65.23
2018-01-27T02:15:24.253Z,64.83
2018-01-27T02:17:52.762Z,63.57
2018-01-27T02:20:21.170Z,62.97
2018-01-27T02:22:49.681Z,62.30
2018-01-27T02:25:18.145Z,62.06
2018-01-27T02:27:46.593Z,61.94
2018-01-27T02:30:15.029Z,61.98
2018-01-27T02:36:17.715Z,61.69
2018-01-27T02:38:46.117Z,61.36
2018-01-27T02:41:14.574Z,61.67
2018-01-27T02:43:43.088Z,62.05
2018-01-27T02:46:11.625Z,61.73
2018-01-27T02:48:40.055Z,61.69
2018-01-27T02:51:08.600Z,62.09
2018-01-27T02:53:37.034Z,61.59
2018-01-27T02:56:05.465Z,61.51
2018-01-27T02:58:33.981Z,61.51
2018-01-27T03:01:02.477Z,61.69
2018-01-27T03:03:30.891Z,61.83
2018-01-27T03:05:59.405Z,61.80
2018-01-27T03:08:27.824Z,61.34
2018-01-27T03:10:56.269Z,61.81
2018-01-27T03:13:24.727Z,61.86
2018-01-27T03:15:53.233Z,61.32
2018-01-27T03:18:21.652Z,61.70
2018-01-27T03:20:50.158Z,61.10
2018-01-27T03:23:18.576Z,62.55
2018-01-27T03:25:46.998Z,63.46
2018-01-27T03:28:15.530Z,62.87
2018-01-27T03:30:43.999Z,61.79
2018-01-27T03:33:12.462Z,62.01
2018-01-27T03:35:40.889Z,62.73
2018-01-27T03:38:09.393Z,61.52
2018-01-27T03:40:37.812Z,62.22
2018-01-27T03:43:06.414Z,64.19
2018-01-27T03:45:34.841Z,62.41
2018-01-27T03:48:03.297Z,61.80
2018-01-27T03:50:31.802Z,61.71
2018-01-27T03:53:00.205Z,61.50
2018-01-27T03:55:28.664Z,61.98
2018-01-27T03:57:57.157Z,62.06
2018-01-27T04:00:25.676Z,61.29
2018-01-27T04:02:54.108Z,61.24
2018-01-27T04:05:23.014Z,61.45
2018-01-27T04:07:51.481Z,61.15
2018-01-27T04:10:19.876Z,62.27
2018-01-27T04:12:48.325Z,61.10
2018-01-27T04:15:16.792Z,61.30
2018-01-27T04:17:45.240Z,62.29
2018-01-27T04:20:13.647Z,61.71
2018-01-27T04:22:42.056Z,61.40
2018-01-27T04:25:10.509Z,61.14
2018-01-27T04:27:38.969Z,62.29
2018-01-27T04:30:07.412Z,62.83
2018-01-27T04:32:35.872Z,64.63
2018-01-27T04:35:04.369Z,62.49
2018-01-27T04:37:32.794Z,61.97
2018-01-27T04:40:01.260Z,62.54
2018-01-27T04:42:29.718Z,61.78
2018-01-27T04:44:58.129Z,61.66
2018-01-27T04:47:26.573Z,61.62
2018-01-27T04:49:54.965Z,61.64
2018-01-27T04:52:23.396Z,61.44
2018-01-27T04:54:51.867Z,61.36
2018-01-27T04:57:20.361Z,61.40
2018-01-27T04:59:48.818Z,61.18
2018-01-27T05:02:17.225Z,61.14
2018-01-27T05:04:45.729Z,61.47
2018-01-27T05:07:14.180Z,64.29
2018-01-27T05:09:42.597Z,62.25
2018-01-27T05:12:11.053Z,61.63
2018-01-27T05:14:39.484Z,63.63
2018-01-27T05:17:07.986Z,62.59
2018-01-27T05:19:36.437Z,62.45
2018-01-27T05:22:04.877Z,62.34
2018-01-27T05:24:33.351Z,61.64
2018-01-27T05:27:01.799Z,61.60
2018-01-27T05:29:30.211Z,61.24
2018-01-27T05:31:58.648Z,61.22
2018-01-27T05:34:27.030Z,61.49
2018-01-27T05:36:55.483Z,62.96
2018-01-27T05:39:23.924Z,62.87
2018-01-27T05:41:52.415Z,62.76
2018-01-27T05:44:20.870Z,62.56
2018-01-27T05:46:49.280Z,62.97
2018-01-27T05:49:17.687Z,63.30
2018-01-27T05:51:46.131Z,62.52
2018-01-27T05:54:14.634Z,63.38
2018-01-27T05:56:43.082Z,63.14
2018-01-27T05:59:11.552Z,62.16
2018-01-27T06:01:40.026Z,61.65
2018-01-27T06:04:08.482Z,61.66
2018-01-27T06:06:36.947Z,62.78
2018-01-27T06:09:05.372Z,62.82
2018-01-27T06:11:33.889Z,61.77
2018-01-27T06:14:02.336Z,62.47
2018-01-27T06:16:30.732Z,62.31
2018-01-27T06:18:59.149Z,62.35
2018-01-27T06:21:27.665Z,62.20
2018-01-27T06:23:56.072Z,62.31
2018-01-27T06:26:24.569Z,61.79
2018-01-27T06:28:52.999Z,61.80
2018-01-27T06:31:21.439Z,62.00
2018-01-27T06:33:49.855Z,62.35
2018-01-27T06:36:18.362Z,63.22
2018-01-27T06:38:46.808Z,63.20
2018-01-27T06:41:15.245Z,63.23
2018-01-27T06:43:43.713Z,63.52
2018-01-27T06:46:12.122Z,62.85
2018-01-27T06:48:40.580Z,62.76
2018-01-27T06:51:09.053Z,61.96
2018-01-27T06:53:37.568Z,62.53
2018-01-27T06:56:05.977Z,61.71
2018-01-27T06:58:34.417Z,60.98
2018-01-27T07:01:02.865Z,60.51
2018-01-27T07:03:31.254Z,60.25
2018-01-27T07:05:59.678Z,60.08
2018-01-27T07:08:28.112Z,59.58
2018-01-27T07:10:56.567Z,59.60
2018-01-27T07:13:25.010Z,59.87
2018-01-27T07:15:53.400Z,59.95
2018-01-27T07:18:21.848Z,59.87
2018-01-27T07:20:50.313Z,59.52
2018-01-27T07:23:18.745Z,59.78
2018-01-27T07:25:47.229Z,60.03
2018-01-27T07:28:15.711Z,60.02
2018-01-27T07:30:44.112Z,60.13
2018-01-27T07:33:12.598Z,60.03
2018-01-27T07:35:41.065Z,60.19
2018-01-27T07:38:09.525Z,59.86
2018-01-27T07:40:38.013Z,59.63
2018-01-27T07:43:06.456Z,59.49
2018-01-27T07:45:34.992Z,59.11
2018-01-27T07:48:03.397Z,58.76
2018-01-27T07:50:31.796Z,58.79
2018-01-27T07:53:00.249Z,58.77
2018-01-27T07:55:28.694Z,58.27
2018-01-27T07:57:57.144Z,58.24
2018-01-27T08:00:25.521Z,58.39
2018-01-27T08:02:54.017Z,58.37
2018-01-27T08:05:23.165Z,57.29
2018-01-27T08:07:51.575Z,57.94
2018-01-27T08:10:20.030Z,58.35
2018-01-27T08:12:48.505Z,58.06
2018-01-27T08:15:16.960Z,57.02
2018-01-27T08:17:45.389Z,57.49
2018-01-27T08:20:13.845Z,57.51
2018-01-27T08:22:42.265Z,56.80
2018-01-27T08:25:10.677Z,57.29
2018-01-27T08:27:39.112Z,57.10
2018-01-27T08:30:07.501Z,57.00
2018-01-27T08:32:36.004Z,56.74
2018-01-27T08:35:04.463Z,56.57
2018-01-27T08:37:32.858Z,56.20
2018-01-27T08:40:01.277Z,55.89
2018-01-27T08:42:29.732Z,56.26
2018-01-27T08:44:58.225Z,55.96
2018-01-27T08:47:27.582Z,56.12
2018-01-27T08:49:56.009Z,55.92
2018-01-27T08:52:24.457Z,55.00
2018-01-27T08:54:52.906Z,55.04
2018-01-27T08:57:21.378Z,54.40
2018-01-27T08:59:49.801Z,53.99
2018-01-27T09:02:18.250Z,54.58
2018-01-27T09:04:46.699Z,52.47
2018-01-27T09:07:15.124Z,53.22
2018-01-27T09:09:43.610Z,53.34
2018-01-27T09:12:12.000Z,53.32
2018-01-27T09:14:40.489Z,51.78
2018-01-27T09:17:08.949Z,52.38
2018-01-27T09:19:37.417Z,51.41
2018-01-27T09:22:05.844Z,52.21
2018-01-27T09:24:34.321Z,51.58
2018-01-27T09:27:02.810Z,49.64
2018-01-27T09:29:31.297Z,50.40
2018-01-27T09:31:59.741Z,49.12
2018-01-27T09:34:28.194Z,49.81
2018-01-27T09:36:56.645Z,49.98
2018-01-27T09:39:25.099Z,50.89
2018-01-27T09:41:53.593Z,51.09
2018-01-27T09:44:21.992Z,51.00
2018-01-27T09:46:50.399Z,49.42
2018-01-27T09:49:18.823Z,50.62
2018-01-27T09:51:47.233Z,50.85
2018-01-27T09:54:15.700Z,50.71
2018-01-27T09:56:44.188Z,49.88
2018-01-27T09:59:12.616Z,50.39
2018-01-27T10:01:41.021Z,49.35
2018-01-27T10:04:09.479Z,49.74
2018-01-27T10:06:37.940Z,49.37
2018-01-27T10:09:06.433Z,48.94
2018-01-27T10:11:34.867Z,47.94
2018-01-27T10:14:03.317Z,49.26
2018-01-27T10:16:31.825Z,49.26
2018-01-27T10:19:00.217Z,48.94
2018-01-27T10:21:28.657Z,48.06
2018-01-27T10:23:57.246Z,48.89
2018-01-27T10:26:25.705Z,48.67
2018-01-27T10:28:54.104Z,47.86
2018-01-27T10:31:22.524Z,48.23
2018-01-27T10:33:50.916Z,47.17
2018-01-27T10:36:19.429Z,47.61
2018-01-27T10:38:47.873Z,48.51
2018-01-27T10:41:16.335Z,48.60
2018-01-27T10:43:44.769Z,48.19
2018-01-27T10:46:13.245Z,48.08
2018-01-27T10:48:41.724Z,47.65
2018-01-27T10:51:10.196Z,47.60
2018-01-27T10:53:38.592Z,46.69
2018-01-27T10:56:07.041Z,47.27
2018-01-27T10:58:35.497Z,45.97
2018-01-27T11:01:03.937Z,47.09
2018-01-27T11:03:32.404Z,47.19
2018-01-27T11:06:00.832Z,47.17
2018-01-27T11:08:29.280Z,45.67
2018-01-27T11:10:57.715Z,45.90
2018-01-27T11:13:26.150Z,45.48
2018-01-27T11:15:54.553Z,46.65
2018-01-27T11:18:22.954Z,45.77
2018-01-27T11:20:51.413Z,46.27
2018-01-27T11:23:19.817Z,45.61
2018-01-27T11:25:48.214Z,45.85
2018-01-27T11:28:16.644Z,45.43
2018-01-27T11:30:45.185Z,46.24
2018-01-27T11:33:13.616Z,45.64
2018-01-27T11:35:42.132Z,46.65
2018-01-27T11:38:10.590Z,46.16
2018-01-27T11:40:38.981Z,46.01
2018-01-27T11:43:07.493Z,45.72
2018-01-27T11:45:35.949Z,46.01
2018-01-27T11:48:04.332Z,46.20
2018-01-27T11:50:32.754Z,46.47
2018-01-27T11:53:01.277Z,45.86
2018-01-27T11:55:29.729Z,46.23
2018-01-27T11:57:58.177Z,45.45
2018-01-27T12:00:26.604Z,46.16
2018-01-27T12:02:55.121Z,46.33
2018-01-27T12:05:23.525Z,45.94
2018-01-27T12:07:52.009Z,45.54
2018-01-27T12:10:20.430Z,45.08
2018-01-27T12:12:49.304Z,45.08
2018-01-27T12:15:17.712Z,45.57
2018-01-27T12:17:46.153Z,45.84
2018-01-27T12:20:14.629Z,45.61
2018-01-27T12:22:43.065Z,45.62
2018-01-27T12:25:11.477Z,45.92
2018-01-27T12:27:39.898Z,45.45
2018-01-27T12:30:08.528Z,45.61
2018-01-27T12:32:36.981Z,44.71
2018-01-27T12:35:05.416Z,44.35
2018-01-27T12:37:33.852Z,45.24
2018-01-27T12:40:02.285Z,44.14
2018-01-27T12:42:30.682Z,44.07
2018-01-27T12:44:59.198Z,45.22
2018-01-27T12:47:27.609Z,45.29
2018-01-27T12:49:56.014Z,45.12
2018-01-27T12:52:24.501Z,44.40
2018-01-27T12:54:52.981Z,44.94
2018-01-27T12:57:21.443Z,43.94
2018-01-27T12:59:49.833Z,44.46
2018-01-27T13:02:18.234Z,44.80
2018-01-27T13:04:46.656Z,44.80
2018-01-27T13:07:15.053Z,44.99
2018-01-27T13:09:43.545Z,45.04
2018-01-27T13:12:12.009Z,44.91
2018-01-27T13:14:40.455Z,44.62
2018-01-27T13:17:08.881Z,44.42
2018-01-27T13:19:37.360Z,45.18
2018-01-27T13:22:05.844Z,45.09
2018-01-27T13:24:34.281Z,44.42
2018-01-27T13:27:02.677Z,44.96
2018-01-27T13:29:31.133Z,44.60
2018-01-27T13:31:59.621Z,45.09
2018-01-27T13:34:28.019Z,44.77
2018-01-27T13:36:56.491Z,44.74
2018-01-27T13:39:24.952Z,45.18
2018-01-27T13:41:53.394Z,44.93
2018-01-27T13:44:21.787Z,45.10
2018-01-27T13:46:50.220Z,45.10
2018-01-27T13:49:18.603Z,45.11
2018-01-27T13:51:47.057Z,45.43
2018-01-27T13:54:15.490Z,45.28
2018-01-27T13:56:43.893Z,45.20
2018-01-27T13:59:12.405Z,45.26
2018-01-27T14:01:40.853Z,45.42
2018-01-27T14:04:09.245Z,45.45
2018-01-27T14:06:37.728Z,45.27
2018-01-27T14:09:06.117Z,45.59
2018-01-27T14:11:34.533Z,45.55
2018-01-27T14:14:03.003Z,45.53
2018-01-27T14:16:31.403Z,45.56
2018-01-27T14:18:59.906Z,45.38
2018-01-27T14:21:28.342Z,45.47
2018-01-27T14:23:56.834Z,45.57
2018-01-27T14:26:25.237Z,45.68
2018-01-27T14:28:53.666Z,45.71
2018-01-27T14:31:22.121Z,45.46
2018-01-27T14:33:50.645Z,45.36
2018-01-27T14:36:19.097Z,45.51
2018-01-27T14:38:47.506Z,45.49
2018-01-27T14:41:15.937Z,45.44
2018-01-27T14:43:44.441Z,45.39
2018-01-27T14:46:12.929Z,45.50
2018-01-27T14:48:41.455Z,45.45
2018-01-27T14:51:09.896Z,45.51
2018-01-27T14:53:38.357Z,45.35
2018-01-27T14:56:06.830Z,45.62
2018-01-27T14:58:35.262Z,45.78
2018-01-27T15:01:03.758Z,45.71
2018-01-27T15:03:32.184Z,45.96
2018-01-27T15:06:00.629Z,46.08
2018-01-27T15:08:29.025Z,46.07
2018-01-27T15:10:57.465Z,46.01
2018-01-27T15:13:25.862Z,46.15
2018-01-27T15:15:54.362Z,46.19
2018-01-27T15:18:22.821Z,46.37
2018-01-27T15:20:51.225Z,46.44
2018-01-27T15:23:19.661Z,46.55
2018-01-27T15:25:48.089Z,46.62
2018-01-27T15:28:16.537Z,46.76
2018-01-27T15:30:44.934Z,46.89
2018-01-27T15:33:13.337Z,47.13
2018-01-27T15:35:41.749Z,47.15
2018-01-27T15:38:10.257Z,48.84
2018-01-27T15:40:38.749Z,48.46
2018-01-27T15:43:07.145Z,48.17
2018-01-27T15:45:35.583Z,48.25
2018-01-27T15:48:04.026Z,48.80
2018-01-27T15:50:32.452Z,48.74
2018-01-27T15:53:00.854Z,48.71
2018-01-27T15:55:29.306Z,48.83
2018-01-27T15:57:57.732Z,48.97
2018-01-27T16:00:26.174Z,48.99
2018-01-27T16:02:54.645Z,49.36
2018-01-27T16:05:23.392Z,49.31
2018-01-27T16:07:51.881Z,49.26
2018-01-27T16:10:20.385Z,49.68
2018-01-27T16:12:48.823Z,49.49
2018-01-27T16:15:17.313Z,49.67
2018-01-27T16:17:45.763Z,49.81
2018-01-27T16:20:14.258Z,51.78
2018-01-27T16:22:42.689Z,50.70
2018-01-27T16:25:11.140Z,50.58
2018-01-27T16:27:39.568Z,50.71
2018-01-27T16:30:08.065Z,50.73
2018-01-27T16:32:36.528Z,51.32
2018-01-27T16:35:04.961Z,51.20
2018-01-27T16:37:33.365Z,52.24
2018-01-27T16:40:01.865Z,53.93
2018-01-27T16:42:30.257Z,52.21
2018-01-27T16:44:58.740Z,52.13
2018-01-27T16:47:27.241Z,52.63
2018-01-27T16:49:55.677Z,52.35
2018-01-27T16:52:24.069Z,52.36
2018-01-27T16:54:52.524Z,52.33
2018-01-27T16:57:20.992Z,52.56
2018-01-27T16:59:49.384Z,53.06
2018-01-27T17:02:17.880Z,53.34
2018-01-27T17:04:46.365Z,52.95
2018-01-27T17:07:14.862Z,52.99
2018-01-27T17:09:43.292Z,52.87
2018-01-27T17:12:11.749Z,53.23
2018-01-27T17:14:40.157Z,53.30
2018-01-27T17:17:08.553Z,53.62
2018-01-27T17:19:36.994Z,53.35
2018-01-27T17:22:05.396Z,53.49
2018-01-27T17:24:33.832Z,53.86
2018-01-27T17:27:02.301Z,53.83
2018-01-27T17:29:30.771Z,53.97
2018-01-27T17:31:59.192Z,54.31
2018-01-27T17:34:27.725Z,54.33
2018-01-27T17:36:56.126Z,54.40
2018-01-27T17:39:24.521Z,55.21
2018-01-27T17:41:52.956Z,55.30
2018-01-27T17:44:21.454Z,55.25
2018-01-27T17:46:49.846Z,55.30
2018-01-27T17:49:18.274Z,55.67
2018-01-27T17:51:46.656Z,55.46
2018-01-27T17:54:15.119Z,55.72
2018-01-27T17:56:43.573Z,56.16
2018-01-27T17:59:12.069Z,56.10
2018-01-27T18:01:40.513Z,56.34
2018-01-27T18:04:08.973Z,55.47
2018-01-27T18:06:37.437Z,55.91
2018-01-27T18:09:05.830Z,56.07
2018-01-27T18:11:34.332Z,57.27
2018-01-27T18:14:02.761Z,56.70
2018-01-27T18:16:31.169Z,56.88
2018-01-27T18:18:59.647Z,56.76
2018-01-27T18:21:28.078Z,56.66
2018-01-27T18:23:56.468Z,56.64
2018-01-27T18:26:24.915Z,56.72
2018-01-27T18:28:53.344Z,56.55
2018-01-27T18:31:21.746Z,56.67
2018-01-27T18:33:50.292Z,56.75
2018-01-27T18:36:18.879Z,56.91
2018-01-27T18:38:47.314Z,57.31
2018-01-27T18:41:15.753Z,57.07
2018-01-27T18:43:44.168Z,57.19
2018-01-27T18:46:12.555Z,61.70
2018-01-27T18:48:41.019Z,58.33
2018-01-27T18:51:09.461Z,57.86
2018-01-27T18:53:37.975Z,57.77
2018-01-27T18:56:06.382Z,57.61
2018-01-27T18:58:34.835Z,57.60
2018-01-27T19:01:03.293Z,57.59
2018-01-27T19:03:31.749Z,57.97
2018-01-27T19:06:00.211Z,57.67
2018-01-27T19:08:28.666Z,57.86
2018-01-27T19:10:57.061Z,57.87
2018-01-27T19:13:25.500Z,57.84
2018-01-27T19:15:53.971Z,58.35
2018-01-27T19:18:22.480Z,58.83
2018-01-27T19:20:50.934Z,58.85
2018-01-27T19:23:19.389Z,59.06
2018-01-27T19:25:47.897Z,58.84
2018-01-27T19:28:16.366Z,58.85
2018-01-27T19:30:44.836Z,58.73
2018-01-27T19:33:13.262Z,58.78
2018-01-27T19:35:41.741Z,59.82
2018-01-27T19:38:10.140Z,58.61
2018-01-27T19:40:38.630Z,58.66
2018-01-27T19:43:07.081Z,59.13
2018-01-27T19:45:35.599Z,59.39
2018-01-27T19:48:04.027Z,60.09
2018-01-27T19:50:32.541Z,60.07
2018-01-27T19:53:00.950Z,59.36
2018-01-27T19:55:29.386Z,59.19
2018-01-27T19:57:57.885Z,59.01
2018-01-27T20:00:26.337Z,59.43
2018-01-27T20:02:54.733Z,60.08
2018-01-27T20:05:23.252Z,59.80
2018-01-27T20:07:51.724Z,60.20
2018-01-27T20:10:20.141Z,60.27
2018-01-27T20:12:48.629Z,62.42
2018-01-27T20:15:17.080Z,62.99
2018-01-27T20:17:45.535Z,60.49
2018-01-27T20:20:13.986Z,59.97
2018-01-27T20:22:42.494Z,60.20
2018-01-27T20:25:11.022Z,60.63
2018-01-27T20:27:39.473Z,60.57
2018-01-27T20:30:07.945Z,60.55
2018-01-27T20:32:36.381Z,61.73
2018-01-27T20:35:04.889Z,62.40
2018-01-27T20:37:33.404Z,62.09
2018-01-27T20:40:01.845Z,64.40
2018-01-27T20:42:30.354Z,65.09
2018-01-27T20:44:58.770Z,64.68
2018-01-27T20:47:27.228Z,64.21
2018-01-27T20:49:55.734Z,65.99
2018-01-27T20:52:24.250Z,64.47
2018-01-27T20:54:52.723Z,65.06
2018-01-27T20:57:21.210Z,64.54
2018-01-27T20:59:49.704Z,63.52
2018-01-27T21:02:18.118Z,61.80
2018-01-27T21:04:46.673Z,61.90
2018-01-27T21:07:15.140Z,62.21
2018-01-27T21:09:43.565Z,61.72
2018-01-27T21:12:12.005Z,61.56
2018-01-27T21:14:40.509Z,62.20
2018-01-27T21:17:09.001Z,61.77
2018-01-27T21:19:37.516Z,61.92
2018-01-27T21:22:05.996Z,61.83
2018-01-27T21:24:34.497Z,61.51
2018-01-27T21:27:02.965Z,63.66
2018-01-27T21:29:31.423Z,62.44
2018-01-27T21:31:59.856Z,62.32
2018-01-27T21:34:28.269Z,61.99
2018-01-27T21:36:56.769Z,62.17
2018-01-27T21:39:25.173Z,61.42
2018-01-27T21:41:53.626Z,61.64
2018-01-27T21:44:22.096Z,61.44
2018-01-27T21:46:50.509Z,61.29
2018-01-27T21:49:18.962Z,62.06
2018-01-27T21:51:47.446Z,61.51
2018-01-27T21:54:15.929Z,61.51
2018-01-27T21:56:44.373Z,61.53
2018-01-27T21:59:12.845Z,60.99
2018-01-27T22:01:41.308Z,61.84
2018-01-27T22:04:09.804Z,61.81
2018-01-27T22:06:38.257Z,65.11
2018-01-27T22:09:06.697Z,62.64
2018-01-27T22:11:35.097Z,62.37
2018-01-27T22:14:03.553Z,62.72
2018-01-27T22:16:31.985Z,65.05
2018-01-27T22:19:00.437Z,64.66
2018-01-27T22:21:28.929Z,64.55
2018-01-27T22:23:57.337Z,64.42
2018-01-27T22:26:25.788Z,64.57
2018-01-27T22:28:54.189Z,64.62
2018-01-27T22:31:22.643Z,66.41
2018-01-27T22:33:51.117Z,65.70
2018-01-27T22:36:19.633Z,64.05
2018-01-27T22:38:48.041Z,64.12
2018-01-27T22:41:16.461Z,65.86
2018-01-27T22:43:44.906Z,64.65
2018-01-27T22:46:13.312Z,68.39
2018-01-27T22:48:41.766Z,69.39
2018-01-27T22:51:10.189Z,69.68
2018-01-27T22:53:38.640Z,69.83
2018-01-27T22:56:07.061Z,70.01
2018-01-27T22:58:35.536Z,70.39
2018-01-27T23:01:09.472Z,70.70
2018-01-27T23:03:37.959Z,70.36
2018-01-27T23:06:06.527Z,69.82
2018-01-27T23:08:34.960Z,67.97
2018-01-27T23:11:03.461Z,67.02
2018-01-27T23:13:31.980Z,66.70
2018-01-27T23:16:00.479Z,66.04
2018-01-27T23:18:28.928Z,67.04
2018-01-27T23:20:57.373Z,65.88
2018-01-27T23:23:25.875Z,65.14
2018-01-27T23:25:54.290Z,65.30
2018-01-27T23:28:22.726Z,65.49
2018-01-27T23:30:51.168Z,64.66
2018-01-27T23:33:19.577Z,64.25
2018-01-27T23:35:48.070Z,63.89
2018-01-27T23:38:16.473Z,64.17
2018-01-27T23:40:44.949Z,63.88
2018-01-27T23:43:13.392Z,64.06
2018-01-27T23:45:41.875Z,64.80
2018-01-27T23:48:10.326Z,65.65
2018-01-27T23:50:38.776Z,65.48
2018-01-27T23:53:07.189Z,64.77
2018-01-27T23:55:35.652Z,64.98
2018-01-27T23:58:04.169Z,66.00
